Time;durP1;ratioP1;P1;durP2;ratioP2;P2;SDS_P1;SDS_P2;PMS_P1;PMS_P2;Temp;Humidity;BMP_temperature;BMP_pressure;BME280_temperature;BME280_humidity;BME280_pressure;Samples;Min_cycle;Max_cycle;Signal;HPM_P1;HPM_P2
2022/04/20 00:01:16;;;;;;;5.90;5.43;;;8.30;85.30;;;9.02;51.16;97617.63;5268714;28;20195;-53
2022/04/20 00:03:49;;;;;;;5.97;5.57;;;8.20;86.80;;;8.84;50.83;97619.94;5278776;28;20196;-54
2022/04/20 00:06:22;;;;;;;5.90;5.50;;;8.00;86.30;;;8.75;50.95;97624.50;5275214;28;20329;-52
2022/04/20 00:08:55;;;;;;;5.97;5.47;;;8.00;86.60;;;8.77;51.18;97617.84;5276481;28;20222;-51
2022/04/20 00:11:28;;;;;;;5.87;5.37;;;8.00;86.60;;;8.65;51.26;97625.63;5282270;28;20337;-51
2022/04/20 00:14:03;;;;;;;5.83;5.43;;;7.90;87.00;;;8.64;51.75;97622.97;5279663;28;20203;-51
2022/04/20 00:16:36;;;;;;;5.77;5.37;;;7.80;87.80;;;8.69;53.27;97619.03;5273704;28;20314;-54
2022/04/20 00:19:09;;;;;;;5.63;5.13;;;7.90;90.30;;;8.65;53.64;97617.97;5268364;28;20307;-52
2022/04/20 00:21:42;;;;;;;5.90;5.33;;;7.80;90.00;;;8.53;53.67;97625.75;5278721;28;20265;-51
2022/04/20 00:24:15;;;;;;;5.17;4.87;;;7.70;89.90;;;8.50;53.84;97628.13;5275530;28;20196;-53
2022/04/20 00:26:48;;;;;;;5.53;5.03;;;7.60;90.80;;;8.51;54.27;97636.66;5277391;28;20304;-52
2022/04/20 00:29:22;;;;;;;5.17;4.87;;;7.70;90.90;;;8.38;54.89;97627.31;5278614;28;20195;-51
2022/04/20 00:31:56;;;;;;;5.57;5.17;;;7.50;91.40;;;8.42;54.94;97629.31;5272522;28;20199;-53
2022/04/20 00:34:30;;;;;;;5.83;5.33;;;7.50;91.30;;;8.44;55.31;97634.50;5278447;28;20356;-51
2022/04/20 00:37:03;;;;;;;5.50;5.10;;;7.60;91.80;;;8.39;55.91;97628.25;5270025;28;20272;-53
2022/04/20 00:39:37;;;;;;;5.67;5.27;;;7.50;91.80;;;8.17;54.98;97628.56;5286426;28;20235;-56
2022/04/20 00:42:10;;;;;;;5.77;5.37;;;7.30;91.50;;;8.13;55.55;97630.91;5285165;28;20198;-55
2022/04/20 00:44:45;;;;;;;5.83;5.33;;;7.20;91.70;;;8.10;55.53;97620.53;5279863;28;20200;-54
2022/04/20 00:47:19;;;;;;;5.50;5.10;;;7.20;91.90;;;8.03;55.68;97612.41;5278381;28;20617;-56
2022/04/20 00:49:53;;;;;;;6.70;5.77;;;7.20;92.20;;;7.94;57.05;97622.91;5271285;28;20206;-56
2022/04/20 00:52:26;;;;;;;5.63;5.23;;;7.10;93.10;;;7.91;56.30;97615.06;5273870;28;20360;-55
2022/04/20 00:55:19;;;;;;;6.07;5.57;;;7.10;92.40;;;7.79;56.56;97616.84;5283400;28;20234;-55
2022/04/20 00:57:52;;;;;;;6.03;5.60;;;6.90;92.30;;;7.80;56.44;97619.47;5279218;28;20739;-55
2022/04/20 01:00:27;;;;;;;6.17;5.70;;;6.90;93.00;;;7.72;56.70;97612.13;5276287;28;20624;-55
2022/04/20 01:03:00;;;;;;;6.00;5.50;;;6.90;92.50;;;7.65;56.95;97614.28;5274755;28;20203;-52
2022/04/20 01:05:33;;;;;;;5.43;5.03;;;6.80;92.70;;;7.65;56.74;97611.75;5278716;28;20593;-53
2022/04/20 01:08:07;;;;;;;6.10;5.67;;;6.80;92.90;;;7.65;57.33;97614.28;5279768;28;20646;-51
2022/04/20 01:10:40;;;;;;;5.80;5.40;;;6.80;93.20;;;7.78;57.27;97612.53;5276265;28;20712;-54
2022/04/20 01:13:13;;;;;;;6.10;5.60;;;6.80;93.50;;;7.55;57.99;97616.13;5279098;28;20222;-54
2022/04/20 01:15:47;;;;;;;5.37;4.97;;;6.60;93.70;;;7.48;58.09;97619.97;5276636;28;20630;-53
2022/04/20 01:18:21;;;;;;;6.17;5.57;;;6.60;94.90;;;7.42;58.33;97617.03;5280385;28;20557;-50
2022/04/20 01:20:55;;;;;;;6.33;5.83;;;6.50;94.50;;;7.40;59.73;97622.00;5278929;28;20291;-54
2022/04/20 01:23:28;;;;;;;6.10;5.60;;;6.50;95.20;;;7.43;60.72;97621.31;5279005;28;20203;-54
2022/04/20 01:26:01;;;;;;;5.90;5.50;;;6.60;95.90;;;7.35;59.63;97627.56;5274387;28;20318;-55
2022/04/20 01:28:35;;;;;;;6.10;5.70;;;6.50;95.10;;;7.19;59.88;97628.22;5282230;28;20223;-52
2022/04/20 01:31:09;;;;;;;6.07;5.67;;;6.40;95.10;;;7.11;59.50;97629.38;5281805;28;20649;-54
2022/04/20 01:33:42;;;;;;;6.03;5.53;;;6.20;95.50;;;7.14;60.96;97632.13;5280645;28;20230;-53
2022/04/20 01:36:17;;;;;;;6.07;5.57;;;6.30;96.20;;;7.14;61.37;97627.91;5280800;28;20661;-52
2022/04/20 01:38:50;;;;;;;6.07;5.47;;;6.30;96.20;;;7.19;60.94;97621.47;5283107;28;20198;-54
2022/04/20 01:41:23;;;;;;;6.63;6.20;;;6.30;96.30;;;7.17;61.79;97624.69;5282566;28;20282;-53
2022/04/20 01:43:56;;;;;;;6.33;5.93;;;6.40;96.70;;;7.13;61.88;97617.66;5275975;28;20195;-57
2022/04/20 01:46:29;;;;;;;6.60;6.00;;;6.30;96.20;;;7.08;61.33;97622.41;5282725;28;20313;-55
2022/04/20 01:49:02;;;;;;;6.63;6.13;;;6.20;96.40;;;7.08;61.71;97617.34;5282384;27;20574;-56
2022/04/20 01:51:50;;;;;;;6.50;5.90;;;6.20;96.60;;;6.88;61.23;97618.56;5281940;28;20218;-55
2022/04/20 01:54:23;;;;;;;6.23;5.83;;;6.00;96.00;;;6.81;62.19;97606.22;5284248;28;20196;-56
2022/04/20 01:56:56;;;;;;;5.47;5.07;;;5.90;96.90;;;6.84;62.12;97610.59;5279985;28;20259;-56
2022/04/20 01:59:29;;;;;;;6.77;6.27;;;5.90;97.00;;;6.73;61.56;97608.25;5278362;28;20732;-54
2022/04/20 02:04:54;;;;;;;7.30;6.60;;;5.50;97.20;;;6.31;62.71;97612.13;5281519;28;21433;-55
2022/04/20 02:07:28;;;;;;;6.43;6.03;;;5.40;97.10;;;6.26;62.34;97616.00;5275799;28;20314;-53
2022/04/20 02:10:02;;;;;;;7.13;6.43;;;5.20;97.70;;;6.19;64.44;97616.38;5279738;28;20233;-56
2022/04/20 02:12:35;;;;;;;6.37;5.80;;;5.30;98.20;;;6.15;63.82;97604.22;5277702;28;20223;-55
2022/04/20 02:15:09;;;;;;;6.57;6.07;;;5.20;98.20;;;6.08;63.86;97612.19;5278570;28;20255;-56
2022/04/20 02:17:42;;;;;;;6.77;6.20;;;5.20;98.10;;;6.10;64.97;97613.19;5284383;28;20280;-56
2022/04/20 02:20:16;;;;;;;6.13;5.63;;;5.30;98.80;;;6.14;65.12;97612.63;5281325;28;20231;-52
2022/04/20 02:22:50;;;;;;;7.10;6.50;;;5.40;98.90;;;6.18;65.64;97609.53;5276986;28;20299;-57
2022/04/20 02:25:23;;;;;;;6.33;5.83;;;5.40;99.00;;;6.19;65.49;97615.50;5281019;28;20696;-55
2022/04/20 02:27:56;;;;;;;6.97;6.47;;;5.30;98.70;;;6.10;64.36;97613.19;5280633;28;20308;-56
2022/04/20 02:30:29;;;;;;;6.83;6.30;;;5.20;98.30;;;6.04;64.97;97616.19;5282638;28;20665;-55
2022/04/20 02:33:02;;;;;;;7.17;6.67;;;5.20;99.10;;;6.04;65.35;97612.78;5280644;28;20712;-52
2022/04/20 02:35:37;;;;;;;6.67;6.17;;;5.20;99.20;;;5.87;65.21;97612.41;5283827;28;20637;-55
2022/04/20 02:38:15;;;;;;;6.50;6.00;;;5.00;98.60;;;5.86;65.60;97614.84;5275959;28;20280;-56
2022/04/20 02:40:51;;;;;;;6.27;5.77;;;5.10;99.30;;;5.91;67.16;97608.44;5281720;28;20731;-53
2022/04/20 02:43:24;;;;;;;6.93;6.33;;;5.10;99.60;;;5.91;66.10;97615.16;5285208;28;20222;-55
2022/04/20 02:45:58;;;;;;;6.33;5.93;;;5.10;99.30;;;5.96;66.20;97611.34;5283992;28;20242;-53
2022/04/20 02:48:31;;;;;;;6.70;6.20;;;5.10;99.80;;;5.92;66.29;97605.13;5285188;28;20301;-54
2022/04/20 02:51:04;;;;;;;6.60;6.20;;;5.10;99.80;;;5.92;66.42;97610.19;5279850;28;20227;-55
2022/04/20 02:53:38;;;;;;;6.70;6.20;;;5.10;99.60;;;5.81;66.45;97603.50;5280886;28;20658;-53
2022/04/20 02:56:11;;;;;;;6.43;5.93;;;5.00;99.40;;;5.66;65.98;97610.88;5278752;28;20283;-56
2022/04/20 02:58:44;;;;;;;7.07;6.57;;;4.80;99.50;;;5.59;66.47;97613.75;5279610;27;20220;-54
2022/04/20 03:01:17;;;;;;;7.10;6.50;;;4.80;99.90;;;5.60;66.65;97610.44;5281413;28;20276;-54
2022/04/20 03:03:50;;;;;;;6.63;6.13;;;4.80;99.90;;;5.58;67.02;97611.97;5279947;28;20192;-53
2022/04/20 03:06:23;;;;;;;7.50;7.00;;;4.70;99.90;;;5.59;67.43;97604.50;5278671;28;20702;-55
2022/04/20 03:08:58;;;;;;;6.60;6.20;;;4.80;99.90;;;5.65;67.19;97604.06;5276353;28;20317;-49
2022/04/20 03:11:31;;;;;;;6.93;6.33;;;4.80;99.90;;;5.55;67.30;97602.53;5281447;28;20294;-49
2022/04/20 03:14:04;;;;;;;7.27;6.77;;;4.70;99.90;;;5.53;68.04;97601.53;5280667;28;20219;-53
2022/04/20 03:16:37;;;;;;;7.03;6.53;;;4.80;99.90;;;5.53;68.00;97603.19;5279055;28;20214;-55
2022/04/20 03:19:11;;;;;;;6.90;6.30;;;4.80;99.90;;;5.57;67.44;97610.22;5273297;28;20668;-51
2022/04/20 03:21:44;;;;;;;6.97;6.30;;;4.70;99.90;;;5.57;67.63;97605.16;5278980;28;20247;-53
2022/04/20 03:24:18;;;;;;;7.67;6.97;;;4.70;99.90;;;5.60;67.74;97607.91;5279220;28;20214;-50
2022/04/20 03:26:51;;;;;;;7.40;6.90;;;4.80;99.90;;;5.52;67.14;97603.94;5282615;28;20229;-54
2022/04/20 03:29:24;;;;;;;6.30;5.80;;;4.70;99.90;;;5.50;67.58;97608.03;5279850;28;20294;-55
2022/04/20 03:31:58;;;;;;;8.10;7.40;;;4.60;99.90;;;5.25;67.45;97608.78;5279790;28;20227;-53
2022/04/20 03:34:31;;;;;;;8.03;7.40;;;4.40;99.90;;;5.22;67.69;97606.00;5279711;28;20221;-53
2022/04/20 03:37:06;;;;;;;7.90;7.20;;;4.30;99.90;;;5.06;68.46;97616.66;5279387;28;20321;-53
2022/04/20 03:39:42;;;;;;;7.23;6.63;;;4.10;99.90;;;5.00;67.92;97613.66;5282090;28;21907;-56
2022/04/20 03:42:15;;;;;;;7.80;7.30;;;4.10;99.90;;;4.88;68.54;97622.91;5276390;28;20651;-57
2022/04/20 03:44:48;;;;;;;7.33;6.80;;;4.10;99.90;;;4.84;69.73;97613.31;5279254;28;20291;-54
2022/04/20 03:47:21;;;;;;;7.30;6.70;;;4.10;99.90;;;4.73;69.74;97622.63;5282000;28;20650;-54
2022/04/20 03:49:54;;;;;;;7.67;7.00;;;4.00;99.90;;;4.79;69.49;97620.56;5275583;28;20301;-53
2022/04/20 03:52:27;;;;;;;7.37;6.87;;;4.00;99.90;;;4.89;70.58;97620.50;5281282;28;20201;-57
2022/04/20 03:55:01;;;;;;;7.33;6.90;;;4.10;99.90;;;4.79;69.80;97625.63;5277175;28;20282;-55
2022/04/20 03:57:35;;;;;;;7.40;6.97;;;4.00;99.90;;;4.74;69.03;97630.31;5282141;28;20317;-56
2022/04/20 04:00:09;;;;;;;7.47;6.90;;;3.90;99.90;;;4.46;70.67;97627.38;5276932;28;20276;-52
2022/04/20 04:02:42;;;;;;;7.57;7.07;;;3.60;99.90;;;4.38;70.75;97630.97;5273574;28;20247;-51
2022/04/20 04:05:15;;;;;;;7.60;7.10;;;3.60;99.90;;;4.32;71.27;97630.50;5278798;28;20675;-52
2022/04/20 04:07:48;;;;;;;7.67;6.97;;;3.50;99.90;;;4.14;71.78;97631.59;5280323;28;20799;-54
2022/04/20 04:10:22;;;;;;;7.80;7.30;;;3.40;99.90;;;4.21;72.25;97629.66;5281061;28;20732;-54
2022/04/20 04:12:56;;;;;;;7.37;6.77;;;3.50;99.90;;;4.26;71.76;97627.47;5279233;28;20286;-56
2022/04/20 04:15:30;;;;;;;7.93;7.33;;;3.50;99.90;;;4.25;71.81;97631.66;5279799;28;20305;-55
2022/04/20 04:18:04;;;;;;;8.33;7.53;;;3.50;99.90;;;4.02;72.38;97628.97;5278012;28;20635;-55
2022/04/20 04:20:37;;;;;;;7.70;7.20;;;3.30;99.90;;;4.02;73.47;97632.38;5275312;28;20285;-55
2022/04/20 04:23:10;;;;;;;8.30;7.70;;;3.30;99.90;;;3.97;72.34;97636.19;5277553;28;20290;-55
2022/04/20 04:25:45;;;;;;;8.73;8.03;;;3.30;99.90;;;4.04;73.05;97638.47;5279039;28;20301;-54
2022/04/20 04:28:24;;;;;;;8.10;7.50;;;3.30;99.90;;;3.99;73.28;97641.38;5283570;28;20316;-56
2022/04/20 04:30:57;;;;;;;8.20;7.60;;;3.30;99.90;;;3.95;72.91;97640.28;5277701;28;20199;-52
2022/04/20 04:33:31;;;;;;;7.93;7.43;;;3.20;99.90;;;3.94;73.05;97646.06;5273998;28;20198;-56
2022/04/20 04:36:05;;;;;;;8.97;8.33;;;3.20;99.90;;;3.86;73.83;97639.53;5272793;28;20789;-56
2022/04/20 04:38:38;;;;;;;8.20;7.50;;;3.10;99.90;;;3.81;73.88;97640.81;5283237;28;20244;-50
2022/04/20 04:41:12;;;;;;;9.00;8.30;;;3.10;99.90;;;3.86;73.65;97639.53;5283587;28;20783;-51
2022/04/20 04:43:45;;;;;;;9.30;8.60;;;3.10;99.90;;;3.96;73.98;97636.97;5276037;28;20222;-52
2022/04/20 04:49:09;;;;;;;8.83;8.13;;;3.20;99.90;;;4.01;73.50;97640.75;5276434;28;20345;-51
2022/04/20 04:51:42;;;;;;;9.23;8.53;;;3.20;99.90;;;4.14;73.37;97646.75;5275978;28;20245;-55
2022/04/20 04:54:15;;;;;;;8.80;8.10;;;3.30;99.90;;;4.15;73.34;97643.44;5273721;28;20300;-56
2022/04/20 04:56:49;;;;;;;8.20;7.60;;;3.40;99.90;;;4.19;72.96;97646.34;5281366;28;20290;-49
2022/04/20 04:59:23;;;;;;;9.73;8.77;;;3.50;99.90;;;4.23;72.90;97642.41;5281148;28;20251;-55
2022/04/20 05:01:56;;;;;;;9.47;8.77;;;3.50;99.90;;;4.33;74.19;97639.84;5276097;28;20243;-49
2022/04/20 05:04:29;;;;;;;10.50;9.70;;;3.70;99.90;;;4.27;73.05;97639.38;5283381;28;20671;-49
2022/04/20 05:07:03;;;;;;;11.70;10.70;;;3.60;99.90;;;4.34;72.98;97636.53;5282986;28;20255;-52
2022/04/20 05:09:36;;;;;;;14.10;12.77;;;3.70;99.90;;;4.40;73.52;97638.66;5279392;28;20785;-49
2022/04/20 05:12:11;;;;;;;10.00;9.30;;;3.70;99.90;;;4.36;72.58;97639.19;5282796;28;20295;-54
2022/04/20 05:14:44;;;;;;;10.87;9.97;;;3.60;99.90;;;4.43;73.22;97637.22;5276951;28;20202;-53
2022/04/20 05:17:18;;;;;;;11.87;10.87;;;3.70;99.90;;;4.54;72.77;97635.53;5277760;28;20262;-56
2022/04/20 05:19:51;;;;;;;11.93;11.03;;;3.90;99.90;;;4.77;72.79;97632.22;5279016;28;20235;-51
2022/04/20 05:22:25;;;;;;;13.43;12.27;;;4.10;99.90;;;5.08;70.52;97619.31;5285034;28;20193;-49
2022/04/20 05:24:58;;;;;;;10.50;9.70;;;4.40;99.90;;;5.51;69.52;97630.06;5279273;28;20203;-51
2022/04/20 05:27:32;;;;;;;9.83;9.17;;;4.70;99.90;;;6.12;67.17;97624.31;5281429;28;20253;-52
2022/04/20 05:30:07;;;;;;;11.73;10.83;;;5.30;99.90;;;6.51;65.14;97631.28;5277497;28;20685;-52
2022/04/20 05:32:41;;;;;;;11.20;10.30;;;5.50;99.90;;;6.79;63.46;97628.09;5281513;28;20277;-51
2022/04/20 05:35:14;;;;;;;8.93;8.30;;;5.70;99.60;;;7.33;62.41;97618.97;5275190;28;20775;-53
2022/04/20 05:43:29;;;;;;;8.73;8.03;;;7.10;96.30;;;8.60;57.43;97619.38;5273447;28;20191;-53
2022/04/20 05:46:03;;;;;;;9.40;8.67;;;7.60;95.50;;;8.88;56.55;97621.03;5281312;28;20327;-50
2022/04/20 05:48:36;;;;;;;8.53;7.87;;;7.80;95.10;;;9.13;54.98;97613.13;5274999;28;20226;-55
2022/04/20 05:51:10;;;;;;;8.00;7.47;;;7.90;94.50;;;9.34;55.07;97616.94;5285105;28;20285;-55
2022/04/20 05:53:43;;;;;;;7.77;7.17;;;8.20;94.30;;;9.50;53.75;97625.47;5276619;28;20245;-52
2022/04/20 05:56:16;;;;;;;7.73;7.23;;;8.10;93.80;;;9.76;54.03;97624.41;5285581;28;20700;-53
2022/04/20 05:58:52;;;;;;;8.27;7.57;;;8.30;94.00;;;9.76;51.39;97627.84;5285904;28;20192;-52
2022/04/20 06:01:26;;;;;;;7.73;7.17;;;8.60;92.50;;;10.15;51.15;97625.72;5281042;28;20198;-54
2022/04/20 06:03:59;;;;;;;8.10;7.40;;;8.80;92.30;;;9.52;53.46;97634.09;5278238;28;20571;-53
2022/04/20 06:06:32;;;;;;;8.20;7.50;;;8.50;93.00;;;10.10;52.37;97633.16;5278839;28;20510;-54
2022/04/20 06:09:06;;;;;;;7.87;7.27;;;8.80;92.70;;;10.33;51.42;97631.91;5273005;28;20269;-54
2022/04/20 06:11:39;;;;;;;8.53;7.83;;;9.00;92.30;;;10.94;50.53;97629.13;5272546;28;20235;-53
2022/04/20 06:14:13;;;;;;;8.13;7.33;;;9.20;92.10;;;11.04;50.12;97631.38;5277381;28;20235;-50
2022/04/20 06:16:46;;;;;;;8.30;7.50;;;9.10;92.00;;;11.41;48.76;97635.78;5282147;28;20214;-51
2022/04/20 06:19:19;;;;;;;7.50;6.90;;;9.50;91.60;;;11.39;48.43;97642.53;5276348;28;20200;-54
2022/04/20 06:21:52;;;;;;;7.90;7.20;;;9.80;90.60;;;11.31;48.54;97632.72;5276501;28;20283;-56
2022/04/20 06:24:25;;;;;;;7.93;7.30;;;9.80;90.60;;;11.85;47.03;97641.34;5275687;28;20203;-54
2022/04/20 06:26:59;;;;;;;8.27;7.47;;;10.10;90.00;;;12.03;46.21;97651.63;5274280;28;20630;-54
2022/04/20 06:29:33;;;;;;;8.20;7.50;;;10.50;88.20;;;12.59;44.86;97651.72;5271604;28;20315;-57
2022/04/20 06:32:09;;;;;;;7.80;7.20;;;10.80;87.40;;;12.77;44.97;97640.53;5275979;28;20670;-51
2022/04/20 06:34:42;;;;;;;8.40;7.70;;;11.10;86.60;;;12.79;43.88;97641.47;5275995;28;20200;-51
2022/04/20 06:37:17;;;;;;;7.30;6.78;;;11.10;85.20;;;12.94;43.72;97637.03;5280430;28;20203;-53
2022/04/20 06:39:50;;;;;;;8.23;7.53;;;11.20;86.20;;;13.65;42.36;97638.41;5272909;28;20237;-56
2022/04/20 06:42:23;;;;;;;7.20;6.70;;;11.70;84.50;;;13.64;42.35;97638.31;5276593;28;20528;-56
2022/04/20 06:44:58;;;;;;;7.40;6.80;;;11.80;83.40;;;13.53;41.83;97630.16;5273178;28;20292;-55
2022/04/20 06:47:33;;;;;;;7.43;6.82;;;11.70;83.00;;;13.41;41.58;97638.22;5277063;28;20310;-52
2022/04/20 06:50:07;;;;;;;7.53;6.90;;;11.80;82.00;;;13.73;41.63;97626.75;5284465;28;20306;-54
2022/04/20 06:58:35;;;;;;;7.78;7.10;;;12.30;81.00;;;13.68;41.49;97612.84;5282293;28;20644;-54
2022/04/20 07:01:10;;;;;;;8.15;7.55;;;12.00;80.20;;;13.97;41.15;97621.72;5281287;28;20601;-54
2022/04/20 07:03:43;;;;;;;8.02;7.43;;;12.10;80.70;;;14.08;41.20;97613.53;5280095;28;20582;-53
2022/04/20 07:06:17;;;;;;;7.95;7.38;;;12.40;80.20;;;14.06;40.13;97618.63;5273434;28;20726;-55
2022/04/20 07:08:50;;;;;;;7.65;6.95;;;12.50;79.30;;;14.12;40.82;97612.84;5279506;28;20301;-55
2022/04/20 07:11:23;;;;;;;6.95;6.45;;;12.40;79.70;;;13.90;40.75;97609.41;5279215;28;20286;-51
2022/04/20 07:13:56;;;;;;;7.68;7.07;;;12.20;80.10;;;13.65;41.50;97601.53;5278207;28;20207;-53
2022/04/20 07:16:30;;;;;;;7.03;6.53;;;11.90;80.70;;;13.73;40.26;97595.94;5282730;28;20266;-56
2022/04/20 07:19:04;;;;;;;7.15;6.65;;;12.10;79.70;;;13.91;41.58;97598.34;5281786;28;20566;-54
2022/04/20 07:21:37;;;;;;;6.45;5.90;;;12.20;80.60;;;14.03;39.33;97599.66;5277806;28;20195;-54
2022/04/20 07:24:10;;;;;;;6.90;6.30;;;12.30;77.80;;;13.87;38.83;97604.16;5279764;28;20283;-54
2022/04/20 07:26:43;;;;;;;6.22;5.72;;;12.60;76.40;;;14.20;39.20;97599.47;5279949;28;20211;-50
2022/04/20 07:29:16;;;;;;;5.78;5.40;;;12.70;77.10;;;14.18;38.11;97605.38;5282097;28;20238;-51
2022/04/20 07:31:50;;;;;;;5.85;5.35;;;12.90;75.10;;;14.07;38.10;97611.78;5276561;28;20206;-52
2022/04/20 07:34:23;;;;;;;5.15;4.75;;;12.60;74.90;;;14.52;38.72;97601.56;5279169;28;20196;-51
2022/04/20 07:36:56;;;;;;;5.80;5.30;;;13.00;75.90;;;14.35;37.44;97608.59;5279446;28;20255;-51
2022/04/20 07:39:29;;;;;;;5.93;5.53;;;13.00;73.70;;;14.03;37.29;97604.78;5281048;28;20223;-56
2022/04/20 07:42:03;;;;;;;5.65;5.15;;;12.50;74.20;;;13.67;39.09;97607.63;5275183;28;20199;-50
2022/04/20 07:44:36;;;;;;;5.35;4.95;;;12.60;74.00;;;13.45;39.34;97611.88;5276313;28;20289;-53
2022/04/20 07:47:10;;;;;;;5.55;5.05;;;12.30;75.30;;;13.21;41.11;97603.09;5284334;28;20223;-51
2022/04/20 07:52:38;;;;;;;5.32;5.03;;;12.20;75.20;;;13.57;40.58;97597.81;5277929;28;20283;-55
2022/04/20 07:55:13;;;;;;;5.20;4.80;;;12.70;75.90;;;14.19;38.40;97595.16;5275340;28;20243;-51
2022/04/20 07:57:46;;;;;;;6.07;5.68;;;13.40;73.30;;;14.48;37.52;97605.69;5278526;28;20718;-50
2022/04/20 08:00:22;;;;;;;5.32;4.93;;;13.80;71.60;;;14.17;37.25;97613.91;5279563;28;20606;-51
2022/04/20 08:03:11;;;;;;;5.57;5.18;;;13.50;70.00;;;14.27;38.25;97610.84;5280594;28;20256;-53
2022/04/20 08:05:49;;;;;;;5.13;4.72;;;13.20;72.00;;;14.40;37.30;97615.66;5276777;28;20256;-55
2022/04/20 08:08:25;;;;;;;5.15;4.85;;;13.50;70.70;;;13.95;37.99;97607.03;5280580;28;20279;-50
2022/04/20 08:10:58;;;;;;;5.47;5.07;;;13.40;71.20;;;13.78;39.28;97605.50;5272730;28;20350;-53
2022/04/20 08:16:21;;;;;;;5.43;5.03;;;13.40;72.10;;;14.37;37.71;97607.84;5287717;28;20278;-52
2022/04/20 08:18:56;;;;;;;4.93;4.50;;;13.80;70.70;;;14.09;39.05;97611.03;5280155;28;20230;-53
2022/04/20 08:21:29;;;;;;;5.82;5.32;;;13.50;73.00;;;14.47;37.06;97615.88;5286483;28;20293;-52
2022/04/20 08:24:03;;;;;;;5.53;5.13;;;14.00;69.50;;;14.53;37.18;97613.56;5278960;28;20200;-51
2022/04/20 08:26:37;;;;;;;5.20;4.90;;;14.10;69.50;;;14.17;37.59;97624.19;5285346;28;20240;-54
2022/04/20 08:29:10;;;;;;;5.43;5.03;;;13.60;69.30;;;14.03;37.39;97621.06;5284039;28;20291;-54
2022/04/20 08:31:43;;;;;;;5.40;5.05;;;13.40;70.80;;;13.94;36.46;97619.03;5287765;28;20222;-56
2022/04/20 08:34:17;;;;;;;5.47;5.07;;;13.50;69.40;;;14.13;36.03;97624.88;5285987;28;20207;-54
2022/04/20 08:36:50;;;;;;;5.60;5.10;;;13.50;66.90;;;13.87;37.41;97609.28;5288946;28;20275;-54
2022/04/20 08:39:23;;;;;;;5.50;5.05;;;13.00;69.10;;;13.88;37.36;97611.06;5285705;28;20294;-54
2022/04/20 08:41:57;;;;;;;5.65;5.25;;;13.40;69.60;;;13.68;37.14;97622.22;5286336;28;20314;-53
2022/04/20 08:44:37;;;;;;;5.55;5.07;;;13.20;70.40;;;13.51;37.48;97608.69;5290562;28;20596;-53
2022/04/20 08:47:18;;;;;;;5.78;5.28;;;13.00;68.20;;;13.69;37.30;97603.44;5289948;28;20744;-53
2022/04/20 08:49:55;;;;;;;5.40;5.00;;;13.20;69.00;;;13.80;37.72;97602.19;5288929;28;20214;-52
2022/04/20 08:52:42;;;;;;;6.07;5.57;;;13.30;69.80;;;13.68;38.42;97596.56;5279824;28;20211;-54
2022/04/20 08:55:17;;;;;;;5.25;4.72;;;13.30;69.40;;;14.12;37.38;97600.00;5279529;28;20301;-56
2022/04/20 08:57:53;;;;;;;5.75;5.32;;;13.80;68.90;;;13.92;35.78;97607.78;5288318;28;20194;-54
2022/04/20 09:00:27;;;;;;;5.57;5.10;;;13.80;66.20;;;13.90;36.85;97606.84;5289259;28;20233;-54
2022/04/20 09:03:03;;;;;;;4.53;4.22;;;13.50;67.90;;;13.64;36.38;97599.78;5276839;28;20198;-53
2022/04/20 09:05:38;;;;;;;5.85;5.25;;;13.10;67.20;;;13.96;35.55;97599.41;5287908;28;20678;-53
2022/04/20 09:08:13;;;;;;;5.47;4.97;;;13.60;66.80;;;13.96;35.88;97601.97;5283910;28;20669;-53
2022/04/20 09:10:47;;;;;;;5.10;4.70;;;13.50;66.90;;;13.96;36.52;97594.28;5279271;28;20226;-54
2022/04/20 09:13:33;;;;;;;5.30;4.82;;;13.50;68.10;;;14.06;36.42;97597.19;5285990;28;20218;-55
2022/04/20 09:16:07;;;;;;;4.60;4.20;;;13.70;68.20;;;14.44;37.08;97598.66;5282861;28;20666;-57
2022/04/20 09:18:42;;;;;;;4.75;4.40;;;14.00;68.30;;;14.28;34.88;97583.44;5282693;28;20624;-53
2022/04/20 09:21:16;;;;;;;5.00;4.60;;;14.00;64.10;;;13.97;35.58;97585.72;5285384;28;20328;-50
2022/04/20 09:24:06;;;;;;;5.50;5.00;;;13.50;65.60;;;14.11;35.31;97593.13;5287506;28;20293;-54
2022/04/20 09:26:52;;;;;;;4.53;4.13;;;13.70;64.70;;;14.35;35.34;97583.75;5280588;28;20461;-54
2022/04/20 09:29:25;;;;;;;5.15;4.75;;;13.90;66.70;;;14.11;35.15;97598.25;5278053;28;20268;-51
2022/04/20 09:31:58;;;;;;;4.80;4.50;;;13.70;65.50;;;14.37;35.06;97584.69;5284704;28;20440;-54
2022/04/20 09:34:35;;;;;;;4.20;3.95;;;13.90;66.50;;;14.65;35.24;97588.34;5279378;28;20203;-50
2022/04/20 09:37:14;;;;;;;5.20;4.80;;;14.20;65.80;;;14.44;33.99;97583.22;5287849;28;20626;-56
2022/04/20 09:39:48;;;;;;;4.70;4.32;;;14.00;64.20;;;14.35;35.44;97588.91;5287781;28;20230;-55
2022/04/20 09:42:22;;;;;;;4.53;4.22;;;13.90;66.00;;;14.22;34.91;97586.66;5280189;28;20242;-56
2022/04/20 09:44:59;;;;;;;5.50;5.10;;;13.60;65.70;;;14.04;36.51;97575.69;5285390;28;20286;-55
2022/04/20 09:50:27;;;;;;;4.95;4.60;;;13.70;65.80;;;14.11;35.28;97569.97;5282611;28;20690;-54
2022/04/20 09:53:10;;;;;;;5.30;4.80;;;13.70;67.40;;;14.25;35.48;97571.38;5278757;28;20640;-54
2022/04/20 09:55:43;;;;;;;4.88;4.57;;;13.80;66.40;;;14.26;36.29;97579.97;5279502;28;20322;-50
2022/04/20 09:58:18;;;;;;;5.60;5.15;;;13.90;67.30;;;14.34;34.80;97571.72;5277331;28;20241;-53
2022/04/20 10:00:53;;;;;;;5.65;5.15;;;13.90;65.60;;;14.43;36.10;97572.06;5286097;28;20229;-51
2022/04/20 10:03:29;;;;;;;5.22;4.82;;;14.10;66.50;;;14.35;34.39;97563.19;5271111;28;20638;-52
2022/04/20 10:06:02;;;;;;;5.25;4.85;;;14.10;65.00;;;14.63;34.48;97559.09;5276888;28;20314;-54
2022/04/20 10:08:36;;;;;;;5.30;4.93;;;14.30;64.60;;;14.36;34.13;97561.47;5269066;28;20199;-51
2022/04/20 10:11:14;;;;;;;5.38;5.07;;;14.10;62.50;;;14.29;35.27;97551.81;5269400;28;20334;-52
2022/04/20 10:16:05;;;;;;;5.32;4.93;;;13.70;65.20;;;14.34;34.77;97555.44;5271367;28;20194;-54
2022/04/20 10:16:46;;;;;;;5.18;4.78;;;13.90;65.00;;;13.85;35.23;97562.13;5269822;28;20346;-57
2022/04/20 10:19:27;;;;;;;5.72;5.32;;;13.50;65.20;;;14.22;35.25;97554.94;5268940;28;20211;-53
2022/04/20 10:22:05;;;;;;;5.80;5.40;;;13.90;65.60;;;14.12;34.61;97543.44;5280716;28;20671;-53
2022/04/20 10:24:46;;;;;;;6.00;5.50;;;13.80;65.20;;;14.37;35.69;97542.69;5275839;28;20200;-53
2022/04/20 10:27:26;;;;;;;5.90;5.50;;;14.00;65.30;;;14.06;34.97;97541.53;5281548;28;20639;-52
2022/04/20 10:30:03;;;;;;;5.22;4.82;;;13.90;66.10;;;14.40;36.90;97546.22;5277925;28;20287;-50
2022/04/20 10:32:51;;;;;;;6.38;5.82;;;14.00;67.70;;;13.96;35.65;97548.00;5283223;28;20282;-53
2022/04/20 10:35:24;;;;;;;5.18;4.78;;;13.60;65.40;;;14.20;35.88;97534.34;5278407;28;20768;-54
2022/04/20 10:38:11;;;;;;;6.20;5.70;;;13.70;66.10;;;14.40;35.01;97527.38;5282532;28;20663;-55
2022/04/20 10:41:09;;;;;;;5.50;5.10;;;14.00;65.40;;;14.15;35.08;97543.56;5274839;28;20215;-56
2022/04/20 10:43:43;;;;;;;5.40;5.00;;;13.90;64.10;;;14.20;35.72;97542.06;5278456;28;20568;-55
2022/04/20 10:46:18;;;;;;;6.22;5.72;;;13.80;65.40;;;14.11;35.46;97526.28;5273951;27;20642;-54
2022/04/20 10:48:58;;;;;;;6.15;5.65;;;13.70;66.30;;;14.34;35.33;97516.84;5278314;28;20202;-53
2022/04/20 10:51:41;;;;;;;6.10;5.53;;;14.00;65.30;;;14.39;34.74;97525.59;5272439;27;20756;-54
2022/04/20 10:54:27;;;;;;;5.80;5.40;;;14.00;65.30;;;14.15;34.92;97521.31;5282195;28;20272;-55
2022/04/20 10:57:14;;;;;;;5.50;5.00;;;13.80;65.30;;;14.08;34.96;97516.78;5273229;28;20227;-53
2022/04/20 11:00:27;;;;;;;5.40;5.00;;;13.60;65.20;;;14.46;35.95;97509.59;5277535;28;20625;-52
2022/04/20 11:03:03;;;;;;;5.70;5.30;;;14.00;66.70;;;14.50;35.19;97510.56;5280890;27;20194;-52
2022/04/20 11:05:53;;;;;;;5.68;5.18;;;14.20;64.40;;;14.34;34.38;97511.72;5278707;28;20215;-52
2022/04/20 11:08:26;;;;;;;5.47;4.97;;;14.00;63.60;;;14.42;34.66;97516.31;5276096;28;20203;-54
2022/04/20 11:20:09;;;;;;;5.65;5.15;;;13.90;65.40;;;14.11;35.21;97495.44;5271282;28;20235;-53
2022/04/20 11:22:46;;;;;;;5.50;5.00;;;13.70;64.80;;;14.36;34.77;97502.34;5278484;28;20222;-54
2022/04/20 11:25:19;;;;;;;5.28;4.95;;;13.90;65.20;;;14.26;33.79;97483.16;5280995;28;20229;-52
2022/04/20 11:28:02;;;;;;;5.38;4.88;;;13.90;62.80;;;14.46;34.83;97483.88;5279094;28;20698;-52
2022/04/20 11:30:38;;;;;;;5.68;5.28;;;14.00;64.40;;;14.42;34.20;97479.41;5279516;28;20183;-52
2022/04/20 11:33:11;;;;;;;4.97;4.68;;;14.10;62.70;;;14.39;34.62;97467.34;5277297;28;20198;-55